sensor_id;sensor_type;location;lat;lon;timestamp;P1;durP1;ratioP1;P2;durP2;ratioP2
52248;SDS011;38541;48.130;8.378;2024-03-07T00:02:09;5.90;;;5.30;;
52248;SDS011;38541;48.130;8.378;2024-03-07T00:04:36;6.57;;;5.95;;
52248;SDS011;38541;48.130;8.378;2024-03-07T00:07:03;5.93;;;5.20;;
52248;SDS011;38541;48.130;8.378;2024-03-07T00:09:33;6.30;;;5.28;;
52248;SDS011;38541;48.130;8.378;2024-03-07T00:12:01;6.40;;;5.80;;
52248;SDS011;38541;48.130;8.378;2024-03-07T00:14:28;6.25;;;5.38;;
52248;SDS011;38541;48.130;8.378;2024-03-07T00:16:55;6.55;;;5.32;;
52248;SDS011;38541;48.130;8.378;2024-03-07T00:19:27;5.03;;;4.20;;
52248;SDS011;38541;48.130;8.378;2024-03-07T00:21:56;5.53;;;4.93;;
52248;SDS011;38541;48.130;8.378;2024-03-07T00:24:23;4.93;;;4.50;;
52248;SDS011;38541;48.130;8.378;2024-03-07T00:26:50;5.60;;;5.00;;
52248;SDS011;38541;48.130;8.378;2024-03-07T00:29:17;4.18;;;3.78;;
52248;SDS011;38541;48.130;8.378;2024-03-07T00:31:45;4.20;;;3.80;;
52248;SDS011;38541;48.130;8.378;2024-03-07T00:34:13;4.80;;;4.40;;
52248;SDS011;38541;48.130;8.378;2024-03-07T00:36:51;4.18;;;3.78;;
52248;SDS011;38541;48.130;8.378;2024-03-07T00:39:18;4.22;;;3.83;;
52248;SDS011;38541;48.130;8.378;2024-03-07T00:41:46;4.00;;;3.63;;
52248;SDS011;38541;48.130;8.378;2024-03-07T00:44:13;4.35;;;3.95;;
52248;SDS011;38541;48.130;8.378;2024-03-07T00:46:39;3.78;;;3.47;;
52248;SDS011;38541;48.130;8.378;2024-03-07T00:49:06;4.10;;;3.63;;
52248;SDS011;38541;48.130;8.378;2024-03-07T00:51:32;3.78;;;3.47;;
52248;SDS011;38541;48.130;8.378;2024-03-07T00:53:59;4.30;;;3.90;;
52248;SDS011;38541;48.130;8.378;2024-03-07T00:56:25;3.40;;;3.10;;
52248;SDS011;38541;48.130;8.378;2024-03-07T00:58:52;3.33;;;3.03;;
52248;SDS011;38541;48.130;8.378;2024-03-07T01:01:18;3.70;;;3.40;;
52248;SDS011;38541;48.130;8.378;2024-03-07T01:03:45;4.07;;;3.72;;
52248;SDS011;38541;48.130;8.378;2024-03-07T01:06:12;4.75;;;4.30;;
52248;SDS011;38541;48.130;8.378;2024-03-07T01:08:39;4.65;;;4.25;;
52248;SDS011;38541;48.130;8.378;2024-03-07T01:11:06;4.93;;;4.43;;
52248;SDS011;38541;48.130;8.378;2024-03-07T01:13:36;4.72;;;4.30;;
52248;SDS011;38541;48.130;8.378;2024-03-07T01:16:03;4.75;;;4.35;;
52248;SDS011;38541;48.130;8.378;2024-03-07T01:18:30;4.60;;;4.00;;
52248;SDS011;38541;48.130;8.378;2024-03-07T01:20:59;4.20;;;3.80;;
52248;SDS011;38541;48.130;8.378;2024-03-07T01:23:26;4.40;;;4.00;;
52248;SDS011;38541;48.130;8.378;2024-03-07T01:25:57;4.55;;;4.15;;
52248;SDS011;38541;48.130;8.378;2024-03-07T01:28:25;4.53;;;4.15;;
52248;SDS011;38541;48.130;8.378;2024-03-07T01:30:56;4.07;;;3.75;;
52248;SDS011;38541;48.130;8.378;2024-03-07T01:33:24;3.85;;;3.47;;
52248;SDS011;38541;48.130;8.378;2024-03-07T01:35:51;4.15;;;3.67;;
52248;SDS011;38541;48.130;8.378;2024-03-07T01:38:18;3.60;;;3.30;;
52248;SDS011;38541;48.130;8.378;2024-03-07T01:40:45;5.43;;;4.78;;
52248;SDS011;38541;48.130;8.378;2024-03-07T01:43:12;5.90;;;5.30;;
52248;SDS011;38541;48.130;8.378;2024-03-07T01:45:38;5.10;;;4.60;;
52248;SDS011;38541;48.130;8.378;2024-03-07T01:48:05;6.68;;;6.00;;
52248;SDS011;38541;48.130;8.378;2024-03-07T01:50:34;6.50;;;5.72;;
52248;SDS011;38541;48.130;8.378;2024-03-07T01:53:05;8.50;;;6.68;;
52248;SDS011;38541;48.130;8.378;2024-03-07T01:55:36;10.38;;;8.68;;
52248;SDS011;38541;48.130;8.378;2024-03-07T01:58:04;23.85;;;10.65;;
52248;SDS011;38541;48.130;8.378;2024-03-07T02:00:32;16.90;;;10.68;;
52248;SDS011;38541;48.130;8.378;2024-03-07T02:02:59;12.85;;;9.80;;
52248;SDS011;38541;48.130;8.378;2024-03-07T02:05:25;15.48;;;11.32;;
52248;SDS011;38541;48.130;8.378;2024-03-07T02:07:52;20.45;;;11.60;;
52248;SDS011;38541;48.130;8.378;2024-03-07T02:10:18;15.60;;;11.13;;
52248;SDS011;38541;48.130;8.378;2024-03-07T02:12:45;15.70;;;11.93;;
52248;SDS011;38541;48.130;8.378;2024-03-07T02:15:12;15.30;;;12.15;;
52248;SDS011;38541;48.130;8.378;2024-03-07T02:17:40;16.25;;;12.52;;
52248;SDS011;38541;48.130;8.378;2024-03-07T02:20:07;14.57;;;10.75;;
52248;SDS011;38541;48.130;8.378;2024-03-07T02:22:37;16.55;;;11.27;;
52248;SDS011;38541;48.130;8.378;2024-03-07T02:25:04;16.33;;;11.98;;
52248;SDS011;38541;48.130;8.378;2024-03-07T02:27:31;16.65;;;11.23;;
52248;SDS011;38541;48.130;8.378;2024-03-07T02:29:58;17.17;;;12.40;;
52248;SDS011;38541;48.130;8.378;2024-03-07T02:32:24;32.25;;;14.35;;
52248;SDS011;38541;48.130;8.378;2024-03-07T02:34:53;21.48;;;13.95;;
52248;SDS011;38541;48.130;8.378;2024-03-07T02:37:19;17.20;;;12.93;;
52248;SDS011;38541;48.130;8.378;2024-03-07T02:39:46;16.90;;;12.50;;
52248;SDS011;38541;48.130;8.378;2024-03-07T02:42:12;26.05;;;14.00;;
52248;SDS011;38541;48.130;8.378;2024-03-07T02:44:39;16.05;;;12.65;;
52248;SDS011;38541;48.130;8.378;2024-03-07T02:47:06;16.10;;;12.85;;
52248;SDS011;38541;48.130;8.378;2024-03-07T02:49:32;20.15;;;14.40;;
52248;SDS011;38541;48.130;8.378;2024-03-07T02:52:00;25.50;;;14.48;;
52248;SDS011;38541;48.130;8.378;2024-03-07T02:54:26;23.42;;;14.75;;
52248;SDS011;38541;48.130;8.378;2024-03-07T02:56:53;17.10;;;12.77;;
52248;SDS011;38541;48.130;8.378;2024-03-07T02:59:20;15.77;;;12.70;;
52248;SDS011;38541;48.130;8.378;2024-03-07T03:01:46;14.43;;;12.90;;
52248;SDS011;38541;48.130;8.378;2024-03-07T03:04:13;18.75;;;13.77;;
52248;SDS011;38541;48.130;8.378;2024-03-07T03:06:40;15.65;;;12.48;;
52248;SDS011;38541;48.130;8.378;2024-03-07T03:09:07;17.65;;;13.20;;
52248;SDS011;38541;48.130;8.378;2024-03-07T03:11:36;17.20;;;13.65;;
52248;SDS011;38541;48.130;8.378;2024-03-07T03:14:03;19.70;;;14.10;;
52248;SDS011;38541;48.130;8.378;2024-03-07T03:16:30;18.17;;;14.13;;
52248;SDS011;38541;48.130;8.378;2024-03-07T03:19:13;19.20;;;13.20;;
52248;SDS011;38541;48.130;8.378;2024-03-07T03:21:39;26.90;;;13.85;;
52248;SDS011;38541;48.130;8.378;2024-03-07T03:24:07;25.17;;;14.70;;
52248;SDS011;38541;48.130;8.378;2024-03-07T03:26:33;16.40;;;13.32;;
52248;SDS011;38541;48.130;8.378;2024-03-07T03:29:00;20.30;;;14.68;;
52248;SDS011;38541;48.130;8.378;2024-03-07T03:31:27;18.10;;;13.73;;
52248;SDS011;38541;48.130;8.378;2024-03-07T03:33:53;17.52;;;14.45;;
52248;SDS011;38541;48.130;8.378;2024-03-07T03:36:20;26.75;;;15.70;;
52248;SDS011;38541;48.130;8.378;2024-03-07T03:38:46;20.05;;;14.93;;
52248;SDS011;38541;48.130;8.378;2024-03-07T03:41:16;21.73;;;13.95;;
52248;SDS011;38541;48.130;8.378;2024-03-07T03:43:43;34.72;;;15.95;;
52248;SDS011;38541;48.130;8.378;2024-03-07T03:46:10;29.17;;;15.05;;
52248;SDS011;38541;48.130;8.378;2024-03-07T03:48:41;24.77;;;14.75;;
52248;SDS011;38541;48.130;8.378;2024-03-07T03:51:08;23.15;;;13.77;;
52248;SDS011;38541;48.130;8.378;2024-03-07T03:53:35;26.27;;;14.82;;
52248;SDS011;38541;48.130;8.378;2024-03-07T03:56:03;35.67;;;15.00;;
52248;SDS011;38541;48.130;8.378;2024-03-07T03:58:33;31.88;;;13.55;;
52248;SDS011;38541;48.130;8.378;2024-03-07T04:01:00;29.45;;;13.95;;
52248;SDS011;38541;48.130;8.378;2024-03-07T04:03:27;82.65;;;18.58;;
52248;SDS011;38541;48.130;8.378;2024-03-07T04:05:53;25.77;;;14.50;;
52248;SDS011;38541;48.130;8.378;2024-03-07T04:08:22;27.65;;;16.48;;
52248;SDS011;38541;48.130;8.378;2024-03-07T04:10:48;36.97;;;17.15;;
52248;SDS011;38541;48.130;8.378;2024-03-07T04:13:15;21.90;;;15.07;;
52248;SDS011;38541;48.130;8.378;2024-03-07T04:15:42;77.28;;;17.67;;
52248;SDS011;38541;48.130;8.378;2024-03-07T04:18:10;28.48;;;16.13;;
52248;SDS011;38541;48.130;8.378;2024-03-07T04:20:37;22.10;;;16.60;;
52248;SDS011;38541;48.130;8.378;2024-03-07T04:23:05;18.38;;;14.98;;
52248;SDS011;38541;48.130;8.378;2024-03-07T04:25:34;19.75;;;14.48;;
52248;SDS011;38541;48.130;8.378;2024-03-07T04:28:01;23.88;;;16.20;;
52248;SDS011;38541;48.130;8.378;2024-03-07T04:30:29;23.15;;;17.17;;
52248;SDS011;38541;48.130;8.378;2024-03-07T04:32:55;21.20;;;16.45;;
52248;SDS011;38541;48.130;8.378;2024-03-07T04:35:22;20.27;;;15.65;;
52248;SDS011;38541;48.130;8.378;2024-03-07T04:37:49;21.52;;;15.75;;
52248;SDS011;38541;48.130;8.378;2024-03-07T04:40:16;23.92;;;16.30;;
52248;SDS011;38541;48.130;8.378;2024-03-07T04:42:45;28.95;;;15.98;;
52248;SDS011;38541;48.130;8.378;2024-03-07T04:45:13;36.60;;;17.25;;
52248;SDS011;38541;48.130;8.378;2024-03-07T04:47:40;23.42;;;16.90;;
52248;SDS011;38541;48.130;8.378;2024-03-07T04:50:08;51.42;;;19.65;;
52248;SDS011;38541;48.130;8.378;2024-03-07T04:52:39;20.65;;;16.33;;
52248;SDS011;38541;48.130;8.378;2024-03-07T04:55:06;22.65;;;17.40;;
52248;SDS011;38541;48.130;8.378;2024-03-07T04:57:37;54.55;;;19.38;;
52248;SDS011;38541;48.130;8.378;2024-03-07T05:00:09;22.05;;;16.13;;
52248;SDS011;38541;48.130;8.378;2024-03-07T05:02:43;20.92;;;16.65;;
52248;SDS011;38541;48.130;8.378;2024-03-07T05:05:12;23.17;;;16.60;;
52248;SDS011;38541;48.130;8.378;2024-03-07T05:07:39;20.30;;;16.40;;
52248;SDS011;38541;48.130;8.378;2024-03-07T05:10:06;75.95;;;20.30;;
52248;SDS011;38541;48.130;8.378;2024-03-07T05:12:34;24.25;;;16.13;;
52248;SDS011;38541;48.130;8.378;2024-03-07T05:15:00;24.23;;;16.83;;
52248;SDS011;38541;48.130;8.378;2024-03-07T05:17:30;20.65;;;16.63;;
52248;SDS011;38541;48.130;8.378;2024-03-07T05:19:59;23.00;;;17.73;;
52248;SDS011;38541;48.130;8.378;2024-03-07T05:22:26;20.83;;;17.30;;
52248;SDS011;38541;48.130;8.378;2024-03-07T05:24:52;20.38;;;16.42;;
52248;SDS011;38541;48.130;8.378;2024-03-07T05:27:20;22.67;;;17.45;;
52248;SDS011;38541;48.130;8.378;2024-03-07T05:29:47;20.63;;;16.58;;
52248;SDS011;38541;48.130;8.378;2024-03-07T05:32:20;20.73;;;15.65;;
52248;SDS011;38541;48.130;8.378;2024-03-07T05:34:52;18.75;;;16.05;;
52248;SDS011;38541;48.130;8.378;2024-03-07T05:37:22;19.65;;;15.98;;
52248;SDS011;38541;48.130;8.378;2024-03-07T05:39:50;29.58;;;16.60;;
52248;SDS011;38541;48.130;8.378;2024-03-07T05:42:17;21.05;;;16.48;;
52248;SDS011;38541;48.130;8.378;2024-03-07T05:44:45;21.83;;;17.50;;
52248;SDS011;38541;48.130;8.378;2024-03-07T05:47:11;23.67;;;17.63;;
52248;SDS011;38541;48.130;8.378;2024-03-07T05:49:41;22.67;;;17.27;;
52248;SDS011;38541;48.130;8.378;2024-03-07T05:52:07;21.92;;;17.10;;
52248;SDS011;38541;48.130;8.378;2024-03-07T05:54:35;24.08;;;17.77;;
52248;SDS011;38541;48.130;8.378;2024-03-07T05:57:02;28.73;;;18.63;;
52248;SDS011;38541;48.130;8.378;2024-03-07T05:59:29;31.33;;;20.20;;
52248;SDS011;38541;48.130;8.378;2024-03-07T06:01:57;24.40;;;18.38;;
52248;SDS011;38541;48.130;8.378;2024-03-07T06:04:24;31.45;;;19.95;;
52248;SDS011;38541;48.130;8.378;2024-03-07T06:06:50;25.35;;;19.30;;
52248;SDS011;38541;48.130;8.378;2024-03-07T06:09:17;27.05;;;20.00;;
52248;SDS011;38541;48.130;8.378;2024-03-07T06:11:48;26.77;;;19.17;;
52248;SDS011;38541;48.130;8.378;2024-03-07T06:14:15;24.50;;;18.23;;
52248;SDS011;38541;48.130;8.378;2024-03-07T06:16:42;22.20;;;17.27;;
52248;SDS011;38541;48.130;8.378;2024-03-07T06:19:10;32.72;;;20.27;;
52248;SDS011;38541;48.130;8.378;2024-03-07T06:21:38;35.78;;;19.08;;
52248;SDS011;38541;48.130;8.378;2024-03-07T06:24:06;41.85;;;20.50;;
52248;SDS011;38541;48.130;8.378;2024-03-07T06:26:35;31.65;;;20.63;;
52248;SDS011;38541;48.130;8.378;2024-03-07T06:29:26;65.35;;;21.50;;
52248;SDS011;38541;48.130;8.378;2024-03-07T06:31:55;32.67;;;20.75;;
52248;SDS011;38541;48.130;8.378;2024-03-07T06:34:22;27.02;;;20.27;;
52248;SDS011;38541;48.130;8.378;2024-03-07T06:36:49;27.95;;;19.13;;
52248;SDS011;38541;48.130;8.378;2024-03-07T06:39:15;30.90;;;21.35;;
52248;SDS011;38541;48.130;8.378;2024-03-07T06:41:42;26.00;;;19.63;;
52248;SDS011;38541;48.130;8.378;2024-03-07T06:44:09;49.55;;;20.08;;
52248;SDS011;38541;48.130;8.378;2024-03-07T06:46:36;32.40;;;21.75;;
52248;SDS011;38541;48.130;8.378;2024-03-07T06:49:03;27.00;;;20.20;;
52248;SDS011;38541;48.130;8.378;2024-03-07T06:51:32;23.58;;;17.88;;
52248;SDS011;38541;48.130;8.378;2024-03-07T06:53:59;25.70;;;20.38;;
52248;SDS011;38541;48.130;8.378;2024-03-07T06:56:26;35.60;;;21.70;;
52248;SDS011;38541;48.130;8.378;2024-03-07T06:58:53;31.95;;;21.05;;
52248;SDS011;38541;48.130;8.378;2024-03-07T07:01:19;28.00;;;20.75;;
52248;SDS011;38541;48.130;8.378;2024-03-07T07:03:46;25.88;;;20.23;;
52248;SDS011;38541;48.130;8.378;2024-03-07T07:06:16;27.45;;;21.35;;
52248;SDS011;38541;48.130;8.378;2024-03-07T07:08:43;25.85;;;20.50;;
52248;SDS011;38541;48.130;8.378;2024-03-07T07:11:11;25.02;;;19.75;;
52248;SDS011;38541;48.130;8.378;2024-03-07T07:13:39;23.90;;;19.13;;
52248;SDS011;38541;48.130;8.378;2024-03-07T07:16:05;25.08;;;19.92;;
52248;SDS011;38541;48.130;8.378;2024-03-07T07:18:32;23.92;;;18.95;;
52248;SDS011;38541;48.130;8.378;2024-03-07T07:20:59;26.23;;;20.52;;
52248;SDS011;38541;48.130;8.378;2024-03-07T07:23:29;30.13;;;21.63;;
52248;SDS011;38541;48.130;8.378;2024-03-07T07:25:56;26.02;;;20.75;;
52248;SDS011;38541;48.130;8.378;2024-03-07T07:28:22;28.45;;;21.80;;
52248;SDS011;38541;48.130;8.378;2024-03-07T07:30:49;26.52;;;20.60;;
52248;SDS011;38541;48.130;8.378;2024-03-07T07:33:15;24.35;;;20.17;;
52248;SDS011;38541;48.130;8.378;2024-03-07T07:35:42;25.92;;;18.65;;
52248;SDS011;38541;48.130;8.378;2024-03-07T07:38:09;25.42;;;19.23;;
52248;SDS011;38541;48.130;8.378;2024-03-07T07:40:37;25.17;;;19.20;;
52248;SDS011;38541;48.130;8.378;2024-03-07T07:43:05;24.80;;;18.75;;
52248;SDS011;38541;48.130;8.378;2024-03-07T07:45:32;26.80;;;21.25;;
52248;SDS011;38541;48.130;8.378;2024-03-07T07:48:01;26.63;;;19.38;;
52248;SDS011;38541;48.130;8.378;2024-03-07T07:50:29;26.70;;;20.75;;
52248;SDS011;38541;48.130;8.378;2024-03-07T07:52:56;24.77;;;19.15;;
52248;SDS011;38541;48.130;8.378;2024-03-07T07:55:24;26.85;;;19.48;;
52248;SDS011;38541;48.130;8.378;2024-03-07T07:57:54;25.27;;;19.35;;
52248;SDS011;38541;48.130;8.378;2024-03-07T08:00:22;26.13;;;20.17;;
52248;SDS011;38541;48.130;8.378;2024-03-07T08:02:50;24.90;;;19.13;;
52248;SDS011;38541;48.130;8.378;2024-03-07T08:05:21;23.90;;;19.27;;
52248;SDS011;38541;48.130;8.378;2024-03-07T08:07:51;25.08;;;20.05;;
52248;SDS011;38541;48.130;8.378;2024-03-07T08:10:18;25.83;;;19.92;;
52248;SDS011;38541;48.130;8.378;2024-03-07T08:12:46;31.85;;;23.63;;
52248;SDS011;38541;48.130;8.378;2024-03-07T08:15:14;28.42;;;22.00;;
52248;SDS011;38541;48.130;8.378;2024-03-07T08:17:44;24.85;;;19.30;;
52248;SDS011;38541;48.130;8.378;2024-03-07T08:20:16;26.30;;;20.73;;
52248;SDS011;38541;48.130;8.378;2024-03-07T08:22:44;24.48;;;20.27;;
52248;SDS011;38541;48.130;8.378;2024-03-07T08:25:12;25.02;;;19.83;;
52248;SDS011;38541;48.130;8.378;2024-03-07T08:27:40;26.83;;;20.55;;
52248;SDS011;38541;48.130;8.378;2024-03-07T08:30:08;27.33;;;20.40;;
52248;SDS011;38541;48.130;8.378;2024-03-07T08:32:39;25.08;;;19.13;;
52248;SDS011;38541;48.130;8.378;2024-03-07T08:35:07;24.13;;;19.35;;
52248;SDS011;38541;48.130;8.378;2024-03-07T08:37:36;24.90;;;19.40;;
52248;SDS011;38541;48.130;8.378;2024-03-07T08:40:03;25.38;;;19.52;;
52248;SDS011;38541;48.130;8.378;2024-03-07T08:42:33;25.42;;;20.35;;
52248;SDS011;38541;48.130;8.378;2024-03-07T08:45:00;23.58;;;19.10;;
52248;SDS011;38541;48.130;8.378;2024-03-07T08:47:31;25.10;;;18.52;;
52248;SDS011;38541;48.130;8.378;2024-03-07T08:49:58;23.67;;;18.35;;
52248;SDS011;38541;48.130;8.378;2024-03-07T08:52:25;26.70;;;20.13;;
52248;SDS011;38541;48.130;8.378;2024-03-07T08:54:52;25.38;;;18.55;;
52248;SDS011;38541;48.130;8.378;2024-03-07T08:57:20;21.88;;;16.13;;
52248;SDS011;38541;48.130;8.378;2024-03-07T08:59:48;22.58;;;18.08;;
52248;SDS011;38541;48.130;8.378;2024-03-07T09:02:15;22.63;;;18.20;;
52248;SDS011;38541;48.130;8.378;2024-03-07T09:04:42;22.30;;;17.05;;
52248;SDS011;38541;48.130;8.378;2024-03-07T09:07:09;23.35;;;17.85;;
52248;SDS011;38541;48.130;8.378;2024-03-07T09:09:36;20.95;;;16.73;;
52248;SDS011;38541;48.130;8.378;2024-03-07T09:12:02;22.85;;;16.98;;
52248;SDS011;38541;48.130;8.378;2024-03-07T09:14:29;21.38;;;16.35;;
52248;SDS011;38541;48.130;8.378;2024-03-07T09:16:56;21.80;;;16.08;;
52248;SDS011;38541;48.130;8.378;2024-03-07T09:19:23;27.40;;;20.20;;
52248;SDS011;38541;48.130;8.378;2024-03-07T09:21:53;25.30;;;18.27;;
52248;SDS011;38541;48.130;8.378;2024-03-07T09:24:20;22.23;;;16.02;;
52248;SDS011;38541;48.130;8.378;2024-03-07T09:26:50;22.27;;;15.13;;
52248;SDS011;38541;48.130;8.378;2024-03-07T09:29:18;21.52;;;16.48;;
52248;SDS011;38541;48.130;8.378;2024-03-07T09:31:46;21.63;;;18.10;;
52248;SDS011;38541;48.130;8.378;2024-03-07T09:34:15;19.67;;;15.07;;
52248;SDS011;38541;48.130;8.378;2024-03-07T09:36:42;20.35;;;14.52;;
52248;SDS011;38541;48.130;8.378;2024-03-07T09:39:09;20.23;;;15.75;;
52248;SDS011;38541;48.130;8.378;2024-03-07T09:41:35;18.88;;;14.90;;
52248;SDS011;38541;48.130;8.378;2024-03-07T09:44:03;19.20;;;14.48;;
52248;SDS011;38541;48.130;8.378;2024-03-07T09:46:31;19.73;;;14.88;;
52248;SDS011;38541;48.130;8.378;2024-03-07T09:48:58;21.73;;;16.02;;
52248;SDS011;38541;48.130;8.378;2024-03-07T09:51:24;23.35;;;17.88;;
52248;SDS011;38541;48.130;8.378;2024-03-07T09:53:53;23.00;;;18.55;;
52248;SDS011;38541;48.130;8.378;2024-03-07T09:56:24;24.80;;;17.98;;
52248;SDS011;38541;48.130;8.378;2024-03-07T09:58:52;23.27;;;17.38;;
52248;SDS011;38541;48.130;8.378;2024-03-07T10:01:25;22.13;;;15.55;;
52248;SDS011;38541;48.130;8.378;2024-03-07T10:03:54;24.33;;;16.20;;
52248;SDS011;38541;48.130;8.378;2024-03-07T10:06:24;20.55;;;16.55;;
52248;SDS011;38541;48.130;8.378;2024-03-07T10:08:53;23.85;;;17.40;;
52248;SDS011;38541;48.130;8.378;2024-03-07T10:11:19;22.60;;;17.33;;
52248;SDS011;38541;48.130;8.378;2024-03-07T10:13:47;21.88;;;15.93;;
52248;SDS011;38541;48.130;8.378;2024-03-07T10:16:15;23.42;;;15.85;;
52248;SDS011;38541;48.130;8.378;2024-03-07T10:18:43;18.65;;;13.30;;
52248;SDS011;38541;48.130;8.378;2024-03-07T10:21:15;21.33;;;14.32;;
52248;SDS011;38541;48.130;8.378;2024-03-07T10:23:44;22.70;;;15.38;;
52248;SDS011;38541;48.130;8.378;2024-03-07T10:26:11;21.38;;;15.48;;
52248;SDS011;38541;48.130;8.378;2024-03-07T10:28:38;22.90;;;16.27;;
52248;SDS011;38541;48.130;8.378;2024-03-07T10:31:05;24.15;;;17.23;;
52248;SDS011;38541;48.130;8.378;2024-03-07T10:33:39;23.23;;;17.05;;
52248;SDS011;38541;48.130;8.378;2024-03-07T10:36:06;21.65;;;15.40;;
52248;SDS011;38541;48.130;8.378;2024-03-07T10:38:39;25.00;;;18.23;;
52248;SDS011;38541;48.130;8.378;2024-03-07T10:41:06;20.00;;;14.65;;
52248;SDS011;38541;48.130;8.378;2024-03-07T10:43:36;22.65;;;17.25;;
52248;SDS011;38541;48.130;8.378;2024-03-07T10:46:05;25.52;;;17.58;;
52248;SDS011;38541;48.130;8.378;2024-03-07T10:48:37;23.35;;;16.38;;
52248;SDS011;38541;48.130;8.378;2024-03-07T10:59:17;22.27;;;15.73;;
52248;SDS011;38541;48.130;8.378;2024-03-07T11:01:59;25.48;;;16.48;;
52248;SDS011;38541;48.130;8.378;2024-03-07T11:04:39;21.73;;;15.63;;
52248;SDS011;38541;48.130;8.378;2024-03-07T11:07:06;25.20;;;17.40;;
52248;SDS011;38541;48.130;8.378;2024-03-07T11:09:32;24.95;;;18.42;;
52248;SDS011;38541;48.130;8.378;2024-03-07T11:12:00;24.40;;;17.13;;
52248;SDS011;38541;48.130;8.378;2024-03-07T11:14:30;27.48;;;18.92;;
52248;SDS011;38541;48.130;8.378;2024-03-07T11:16:58;20.67;;;15.65;;
52248;SDS011;38541;48.130;8.378;2024-03-07T11:19:28;25.42;;;19.35;;
52248;SDS011;38541;48.130;8.378;2024-03-07T11:22:02;25.65;;;19.15;;
52248;SDS011;38541;48.130;8.378;2024-03-07T11:24:41;26.17;;;17.98;;
52248;SDS011;38541;48.130;8.378;2024-03-07T11:27:09;24.17;;;17.55;;
52248;SDS011;38541;48.130;8.378;2024-03-07T11:29:47;23.55;;;16.38;;
52248;SDS011;38541;48.130;8.378;2024-03-07T11:32:19;20.63;;;16.63;;
52248;SDS011;38541;48.130;8.378;2024-03-07T11:34:50;25.65;;;17.48;;
52248;SDS011;38541;48.130;8.378;2024-03-07T11:37:21;23.83;;;14.73;;
52248;SDS011;38541;48.130;8.378;2024-03-07T11:40:07;23.92;;;18.08;;
52248;SDS011;38541;48.130;8.378;2024-03-07T11:42:34;28.65;;;18.73;;
52248;SDS011;38541;48.130;8.378;2024-03-07T11:45:02;23.70;;;17.70;;
52248;SDS011;38541;48.130;8.378;2024-03-07T11:47:36;24.40;;;17.67;;
52248;SDS011;38541;48.130;8.378;2024-03-07T11:50:08;31.13;;;17.90;;
52248;SDS011;38541;48.130;8.378;2024-03-07T11:52:38;24.02;;;17.38;;
52248;SDS011;38541;48.130;8.378;2024-03-07T11:55:08;23.13;;;16.95;;
52248;SDS011;38541;48.130;8.378;2024-03-07T11:57:34;24.30;;;16.77;;
52248;SDS011;38541;48.130;8.378;2024-03-07T12:00:02;22.75;;;17.02;;
52248;SDS011;38541;48.130;8.378;2024-03-07T12:02:38;21.88;;;16.38;;
52248;SDS011;38541;48.130;8.378;2024-03-07T12:05:05;24.95;;;18.58;;
52248;SDS011;38541;48.130;8.378;2024-03-07T12:07:33;24.75;;;17.00;;
52248;SDS011;38541;48.130;8.378;2024-03-07T12:10:00;20.38;;;15.60;;
52248;SDS011;38541;48.130;8.378;2024-03-07T12:12:31;25.67;;;17.15;;
52248;SDS011;38541;48.130;8.378;2024-03-07T12:14:59;21.88;;;15.88;;
52248;SDS011;38541;48.130;8.378;2024-03-07T12:17:26;22.30;;;16.27;;
52248;SDS011;38541;48.130;8.378;2024-03-07T12:19:54;21.10;;;16.33;;
52248;SDS011;38541;48.130;8.378;2024-03-07T12:22:27;22.58;;;14.95;;
52248;SDS011;38541;48.130;8.378;2024-03-07T12:25:00;22.75;;;16.98;;
52248;SDS011;38541;48.130;8.378;2024-03-07T12:27:35;21.42;;;15.63;;
52248;SDS011;38541;48.130;8.378;2024-03-07T12:30:14;22.10;;;16.63;;
52248;SDS011;38541;48.130;8.378;2024-03-07T12:32:47;22.73;;;16.02;;
52248;SDS011;38541;48.130;8.378;2024-03-07T12:35:18;22.60;;;14.88;;
52248;SDS011;38541;48.130;8.378;2024-03-07T12:37:44;20.58;;;15.32;;
52248;SDS011;38541;48.130;8.378;2024-03-07T12:40:12;21.45;;;15.95;;
52248;SDS011;38541;48.130;8.378;2024-03-07T12:42:50;22.13;;;15.32;;
52248;SDS011;38541;48.130;8.378;2024-03-07T12:45:17;22.33;;;16.45;;
52248;SDS011;38541;48.130;8.378;2024-03-07T12:47:46;25.08;;;18.65;;
52248;SDS011;38541;48.130;8.378;2024-03-07T12:50:19;23.85;;;17.80;;
52248;SDS011;38541;48.130;8.378;2024-03-07T12:52:47;22.23;;;16.65;;
52248;SDS011;38541;48.130;8.378;2024-03-07T12:55:17;23.85;;;16.42;;
52248;SDS011;38541;48.130;8.378;2024-03-07T12:57:44;22.77;;;15.25;;
52248;SDS011;38541;48.130;8.378;2024-03-07T13:00:11;22.85;;;15.65;;
52248;SDS011;38541;48.130;8.378;2024-03-07T13:02:48;22.05;;;16.20;;
52248;SDS011;38541;48.130;8.378;2024-03-07T13:05:15;29.25;;;19.48;;
52248;SDS011;38541;48.130;8.378;2024-03-07T13:07:48;23.33;;;16.88;;
52248;SDS011;38541;48.130;8.378;2024-03-07T13:10:15;23.63;;;16.85;;
52248;SDS011;38541;48.130;8.378;2024-03-07T13:12:42;22.48;;;15.90;;
52248;SDS011;38541;48.130;8.378;2024-03-07T13:15:12;22.33;;;15.88;;
52248;SDS011;38541;48.130;8.378;2024-03-07T13:17:39;24.60;;;17.33;;
52248;SDS011;38541;48.130;8.378;2024-03-07T13:20:08;20.27;;;14.90;;
52248;SDS011;38541;48.130;8.378;2024-03-07T13:22:38;21.80;;;15.10;;
52248;SDS011;38541;48.130;8.378;2024-03-07T13:25:20;23.48;;;15.68;;
52248;SDS011;38541;48.130;8.378;2024-03-07T13:27:56;21.75;;;15.20;;
52248;SDS011;38541;48.130;8.378;2024-03-07T13:30:23;22.35;;;15.25;;
52248;SDS011;38541;48.130;8.378;2024-03-07T13:32:56;25.25;;;16.13;;
52248;SDS011;38541;48.130;8.378;2024-03-07T13:35:24;23.58;;;15.63;;
52248;SDS011;38541;48.130;8.378;2024-03-07T13:37:53;24.88;;;16.00;;
52248;SDS011;38541;48.130;8.378;2024-03-07T13:40:23;21.30;;;15.88;;
52248;SDS011;38541;48.130;8.378;2024-03-07T13:42:52;21.77;;;15.25;;
52248;SDS011;38541;48.130;8.378;2024-03-07T13:45:20;27.10;;;17.13;;
52248;SDS011;38541;48.130;8.378;2024-03-07T13:47:48;25.08;;;16.65;;
52248;SDS011;38541;48.130;8.378;2024-03-07T13:50:16;21.63;;;15.00;;
52248;SDS011;38541;48.130;8.378;2024-03-07T13:53:05;22.38;;;15.43;;
52248;SDS011;38541;48.130;8.378;2024-03-07T14:03:46;24.45;;;16.33;;
52248;SDS011;38541;48.130;8.378;2024-03-07T14:12:09;23.70;;;15.82;;
52248;SDS011;38541;48.130;8.378;2024-03-07T14:15:14;20.65;;;14.73;;
52248;SDS011;38541;48.130;8.378;2024-03-07T14:18:15;19.73;;;14.35;;
52248;SDS011;38541;48.130;8.378;2024-03-07T14:29:41;19.27;;;14.48;;
52248;SDS011;38541;48.130;8.378;2024-03-07T14:32:22;24.45;;;17.00;;
52248;SDS011;38541;48.130;8.378;2024-03-07T14:35:01;23.25;;;15.35;;
52248;SDS011;38541;48.130;8.378;2024-03-07T14:37:55;18.17;;;14.25;;
52248;SDS011;38541;48.130;8.378;2024-03-07T14:40:28;22.30;;;14.80;;
52248;SDS011;38541;48.130;8.378;2024-03-07T14:42:55;22.92;;;15.25;;
52248;SDS011;38541;48.130;8.378;2024-03-07T14:45:27;21.92;;;15.35;;
52248;SDS011;38541;48.130;8.378;2024-03-07T14:47:57;19.13;;;14.70;;
52248;SDS011;38541;48.130;8.378;2024-03-07T14:50:25;23.73;;;16.77;;
52248;SDS011;38541;48.130;8.378;2024-03-07T14:52:55;22.92;;;14.65;;
52248;SDS011;38541;48.130;8.378;2024-03-07T14:55:22;23.08;;;15.75;;
52248;SDS011;38541;48.130;8.378;2024-03-07T14:57:49;23.90;;;15.15;;
52248;SDS011;38541;48.130;8.378;2024-03-07T15:00:16;25.25;;;15.52;;
52248;SDS011;38541;48.130;8.378;2024-03-07T15:02:49;21.85;;;15.43;;
52248;SDS011;38541;48.130;8.378;2024-03-07T15:05:16;21.35;;;16.17;;
52248;SDS011;38541;48.130;8.378;2024-03-07T15:07:48;22.52;;;15.23;;